Time;durP1;ratioP1;P1;durP2;ratioP2;P2;SDS_P1;SDS_P2;PMS_P1;PMS_P2;Temp;Humidity;BMP_temperature;BMP_pressure;BME280_temperature;BME280_humidity;BME280_pressure;Samples;Min_cycle;Max_cycle;Signal;HPM_P1;HPM_P2
2023/02/04 00:02:24;;;;;;;2.35;0.70;;;;;;;7.91;69.19;102037.41;5050819;28;20055;-50
2023/02/04 00:04:51;;;;;;;1.80;0.77;;;;;;;7.93;69.83;102038.34;5054672;28;20045;-47
2023/02/04 00:07:18;;;;;;;2.33;0.52;;;;;;;7.96;69.94;102043.66;5050813;28;20053;-46
2023/02/04 00:09:46;;;;;;;3.72;1.15;;;;;;;8.00;69.84;102043.78;5056701;28;20048;-50
2023/02/04 00:12:13;;;;;;;2.60;1.05;;;;;;;8.03;70.67;102043.88;5055090;28;20049;-48
2023/02/04 00:14:40;;;;;;;4.40;1.10;;;;;;;8.04;69.98;102046.50;5055409;28;20123;-48
2023/02/04 00:17:06;;;;;;;3.25;1.00;;;;;;;8.06;70.50;102047.47;5057544;28;20081;-49
2023/02/04 00:19:33;;;;;;;2.33;0.80;;;;;;;8.09;69.89;102057.03;5062643;28;20136;-49
2023/02/04 00:22:00;;;;;;;2.95;1.00;;;;;;;8.09;70.45;102050.19;5055409;28;20550;-47
2023/02/04 00:24:26;;;;;;;1.50;0.80;;;;;;;8.12;69.77;102049.41;5033411;28;20049;-48
2023/02/04 00:26:53;;;;;;;2.60;0.90;;;;;;;8.14;71.03;102052.94;5025649;28;20045;-48
2023/02/04 00:29:20;;;;;;;3.20;0.90;;;;;;;8.17;69.99;102053.06;5045999;28;20083;-49
2023/02/04 00:31:46;;;;;;;3.72;0.82;;;;;;;8.19;70.74;102053.13;5039715;28;20049;-48
2023/02/04 00:34:13;;;;;;;1.55;0.95;;;;;;;8.21;70.68;102054.94;5038790;28;20072;-49
2023/02/04 00:36:39;;;;;;;2.90;1.00;;;;;;;8.23;71.10;102053.31;5034275;28;20077;-48
2023/02/04 00:39:06;;;;;;;1.55;0.57;;;;;;;8.25;70.70;102055.06;5023885;28;20072;-48
2023/02/04 00:41:32;;;;;;;2.75;0.90;;;;;;;8.28;70.28;102055.19;5026503;28;20041;-48
2023/02/04 00:43:59;;;;;;;3.58;1.00;;;;;;;8.30;70.36;102059.59;5018846;28;20099;-47
2023/02/04 00:46:25;;;;;;;3.50;0.75;;;;;;;8.32;71.24;102063.13;5043817;28;20083;-48
2023/02/04 00:48:52;;;;;;;4.85;0.90;;;;;;;8.33;70.63;102069.16;5025523;28;20045;-49
2023/02/04 00:51:19;;;;;;;2.40;1.00;;;;;;;8.33;71.36;102058.81;5026263;28;20132;-47
2023/02/04 00:53:45;;;;;;;2.17;1.08;;;;;;;8.35;70.44;102062.34;5017204;28;20112;-48
2023/02/04 00:56:12;;;;;;;1.70;1.02;;;;;;;8.34;71.21;102061.47;5018290;28;20501;-49
2023/02/04 00:58:38;;;;;;;4.10;0.70;;;;;;;8.34;70.84;102065.72;5019713;28;20045;-48
2023/02/04 01:01:05;;;;;;;4.50;1.00;;;;;;;8.34;70.79;102066.63;5019965;28;20085;-48
2023/02/04 01:03:32;;;;;;;1.30;0.80;;;;;;;8.34;70.71;102068.31;5021680;28;20045;-47
2023/02/04 01:05:58;;;;;;;2.95;0.85;;;;;;;8.35;70.80;102072.69;5023600;28;20088;-49
2023/02/04 01:08:25;;;;;;;2.85;1.45;;;;;;;8.36;71.50;102069.28;5016468;28;20409;-47
2023/02/04 01:10:51;;;;;;;7.72;0.73;;;;;;;8.34;70.78;102066.63;5019503;28;20129;-47
2023/02/04 01:13:18;;;;;;;2.75;0.88;;;;;;;8.37;70.80;102071.03;5038476;28;20774;-47
2023/02/04 01:15:45;;;;;;;1.45;0.82;;;;;;;8.37;71.91;102071.03;5027862;28;20132;-50
2023/02/04 01:18:12;;;;;;;1.73;0.82;;;;;;;8.37;71.10;102065.84;5021177;28;20095;-48
2023/02/04 01:20:39;;;;;;;2.63;0.80;;;;;;;8.39;71.14;102076.25;5025219;28;22566;-48
2023/02/04 01:23:08;;;;;;;3.13;0.90;;;;;;;8.39;71.24;102077.16;5016515;28;20604;-46
2023/02/04 01:25:36;;;;;;;1.95;0.70;;;;;;;8.40;71.24;102081.47;5020436;28;20049;-51
2023/02/04 01:28:04;;;;;;;2.22;1.02;;;;;;;8.41;70.99;102072.91;5021573;28;20541;-48
2023/02/04 01:30:32;;;;;;;1.80;0.77;;;;;;;8.41;70.79;102078.06;5016920;28;20045;-48
2023/02/04 01:33:01;;;;;;;1.25;0.50;;;;;;;8.43;71.63;102081.59;5019665;28;20141;-49
2023/02/04 01:35:29;;;;;;;2.33;0.82;;;;;;;8.43;71.65;102079.03;5016682;28;20107;-47
2023/02/04 01:37:58;;;;;;;1.63;0.60;;;;;;;8.43;71.19;102075.53;5020568;28;20110;-48
2023/02/04 01:40:26;;;;;;;1.23;0.68;;;;;;;8.43;71.84;102080.72;5019361;28;20077;-48
2023/02/04 01:42:54;;;;;;;2.85;0.75;;;;;;;8.44;72.37;102085.09;5014213;28;20100;-51
2023/02/04 01:45:23;;;;;;;3.08;1.20;;;;;;;8.44;71.78;102085.94;5013570;28;20088;-48
2023/02/04 01:47:51;;;;;;;4.60;0.80;;;;;;;8.46;71.84;102092.06;5019265;28;20050;-48
2023/02/04 01:50:19;;;;;;;3.92;1.15;;;;;;;8.45;71.79;102090.28;5018593;28;20049;-48
2023/02/04 01:52:46;;;;;;;2.72;1.40;;;;;;;8.46;72.51;102099.81;5013273;28;20145;-49
2023/02/04 01:55:18;;;;;;;3.30;1.25;;;;;;;8.47;71.95;102098.97;5020071;28;20049;-49
2023/02/04 01:57:45;;;;;;;2.58;0.90;;;;;;;8.47;72.50;102101.56;5018744;28;20797;-47
2023/02/04 02:00:16;;;;;;;2.83;1.27;;;;;;;8.47;71.63;102093.81;5017249;28;20564;-48
2023/02/04 02:02:49;;;;;;;2.25;0.80;;;;;;;8.46;72.45;102092.06;5018356;28;20223;-48
2023/02/04 02:05:20;;;;;;;1.80;0.60;;;;;;;8.44;72.13;102088.53;5019165;28;20068;-51
2023/02/04 02:07:48;;;;;;;1.58;0.77;;;;;;;8.45;72.49;102094.56;5025238;28;20083;-49
2023/02/04 02:10:17;;;;;;;1.88;0.82;;;;;;;8.45;72.80;102100.59;5040543;28;20144;-47
2023/02/04 02:12:45;;;;;;;2.50;1.10;;;;;;;8.44;71.92;102090.25;5041700;28;20076;-48
2023/02/04 02:15:12;;;;;;;1.55;0.80;;;;;;;8.44;72.36;102088.53;5032300;28;20140;-48
2023/02/04 02:17:40;;;;;;;3.83;0.80;;;;;;;8.44;72.06;102083.34;5040945;28;20110;-48
2023/02/04 02:20:10;;;;;;;2.30;0.77;;;;;;;8.45;72.21;102085.09;5035049;28;20053;-48
2023/02/04 02:22:50;;;;;;;1.42;0.73;;;;;;;8.44;72.37;102087.66;5036551;28;20127;-50
2023/02/04 02:25:16;;;;;;;1.85;0.88;;;;;;;8.44;73.02;102085.94;5039778;28;20073;-48
2023/02/04 02:27:43;;;;;;;2.95;1.02;;;;;;;8.44;73.34;102088.53;5039343;28;20083;-48
2023/02/04 02:30:12;;;;;;;1.95;0.70;;;;;;;8.44;73.74;102085.94;5042639;28;20052;-48
2023/02/04 02:32:39;;;;;;;1.27;0.70;;;;;;;8.44;73.25;102083.34;5036981;28;20073;-46
2023/02/04 02:35:06;;;;;;;1.70;0.65;;;;;;;8.45;73.13;102085.09;5040050;28;20107;-47
2023/02/04 02:37:33;;;;;;;1.75;0.80;;;;;;;8.46;73.09;102081.72;5036830;28;20073;-47
2023/02/04 02:39:59;;;;;;;2.17;0.90;;;;;;;8.48;72.84;102090.41;5038287;28;20053;-47
2023/02/04 02:42:26;;;;;;;1.85;0.50;;;;;;;8.48;73.62;102074.91;5039855;28;20562;-48
2023/02/04 02:44:53;;;;;;;2.30;0.88;;;;;;;8.49;73.07;102071.50;5041758;28;20421;-49
2023/02/04 02:47:21;;;;;;;1.23;0.73;;;;;;;8.51;73.12;102074.13;5036446;28;20069;-47
2023/02/04 02:49:51;;;;;;;1.63;0.60;;;;;;;8.52;73.06;102080.19;5034838;28;20548;-48
2023/02/04 02:52:18;;;;;;;1.90;1.10;;;;;;;8.53;73.71;102081.94;5041133;28;20094;-48
2023/02/04 02:54:45;;;;;;;2.67;0.80;;;;;;;8.52;73.11;102081.09;5034401;28;20568;-49
2023/02/04 02:57:15;;;;;;;2.17;1.08;;;;;;;8.53;73.35;102079.38;5037957;28;20155;-49
2023/02/04 02:59:42;;;;;;;2.63;0.90;;;;;;;8.53;73.26;102079.38;5039253;28;20053;-49
2023/02/04 03:02:12;;;;;;;3.08;1.02;;;;;;;8.54;73.41;102076.88;5038174;28;20683;-49
2023/02/04 03:04:41;;;;;;;;;;;;;;;8.43;73.61;102076.44;5036443;28;20045;-51
2023/02/04 03:07:09;;;;;;;1.13;0.60;;;;;;;8.51;73.48;102089.63;5038977;28;19929;-47
2023/02/04 03:09:36;;;;;;;1.38;0.60;;;;;;;8.52;73.41;102080.19;5039986;28;20467;-47
2023/02/04 03:12:04;;;;;;;2.35;1.00;;;;;;;8.52;73.28;102080.19;5038510;28;20075;-48
2023/02/04 03:14:31;;;;;;;2.33;0.73;;;;;;;8.52;73.51;102069.88;5041100;28;20057;-46
2023/02/04 03:17:00;;;;;;;2.45;0.90;;;;;;;8.53;74.10;102076.78;5039018;28;20076;-48
2023/02/04 03:19:27;;;;;;;2.83;0.70;;;;;;;8.52;74.11;102077.63;5040344;28;20110;-49
2023/02/04 03:21:55;;;;;;;1.30;0.88;;;;;;;8.53;73.80;102072.53;5040821;28;20121;-49
2023/02/04 03:24:22;;;;;;;2.47;1.15;;;;;;;8.53;74.21;102076.78;5032928;28;20497;-47
2023/02/04 03:26:49;;;;;;;1.70;0.80;;;;;;;8.52;73.66;102067.28;5042584;28;20048;-51
2023/02/04 03:29:16;;;;;;;3.10;1.02;;;;;;;8.51;74.09;102060.38;5036507;28;20105;-46
2023/02/04 03:31:42;;;;;;;2.88;0.43;;;;;;;8.51;73.75;102056.06;5041157;28;20052;-50
2023/02/04 03:34:09;;;;;;;1.77;0.75;;;;;;;8.51;73.97;102052.63;5036348;28;20075;-47
2023/02/04 03:36:36;;;;;;;1.58;0.85;;;;;;;8.49;74.72;102058.56;5040948;28;20088;-47
2023/02/04 03:39:03;;;;;;;1.52;0.63;;;;;;;8.51;74.32;102052.63;5042279;28;20048;-48
2023/02/04 03:41:29;;;;;;;1.40;0.70;;;;;;;8.49;74.71;102053.41;5035422;28;20085;-47
2023/02/04 03:43:56;;;;;;;1.48;0.80;;;;;;;8.51;74.33;102065.53;5038600;28;20045;-49
2023/02/04 03:46:24;;;;;;;3.65;0.88;;;;;;;8.51;74.63;102058.66;5038938;28;20110;-48
2023/02/04 03:48:51;;;;;;;1.25;0.82;;;;;;;8.51;73.91;102060.38;5044125;28;20063;-47
2023/02/04 03:51:17;;;;;;;2.08;0.65;;;;;;;8.51;74.79;102068.97;5040894;28;20074;-48
2023/02/04 03:53:44;;;;;;;1.63;0.90;;;;;;;8.52;74.66;102064.69;5040790;28;20045;-48
2023/02/04 03:56:11;;;;;;;2.53;1.00;;;;;;;8.52;74.04;102065.59;5034433;28;20104;-48
2023/02/04 03:58:37;;;;;;;1.67;0.68;;;;;;;8.52;74.72;102057.84;5038735;28;20099;-49
2023/02/04 04:01:04;;;;;;;1.30;0.65;;;;;;;8.53;74.24;102056.13;5038538;28;20144;-47
2023/02/04 04:03:30;;;;;;;3.22;1.17;;;;;;;8.52;74.24;102049.19;5043400;28;20080;-48
2023/02/04 04:05:57;;;;;;;1.60;0.70;;;;;;;8.53;74.89;102056.13;5042642;28;20075;-46
2023/02/04 04:08:24;;;;;;;2.30;0.90;;;;;;;8.54;74.22;102068.28;5042000;28;20047;-49
2023/02/04 04:10:51;;;;;;;1.88;0.60;;;;;;;8.53;74.86;102058.69;5043346;28;20049;-49
2023/02/04 04:13:17;;;;;;;2.13;1.63;;;;;;;8.53;74.98;102069.03;5035312;28;20143;-46
2023/02/04 04:15:44;;;;;;;1.35;0.52;;;;;;;8.52;74.24;102063.00;5041387;28;20151;-51
2023/02/04 04:18:10;;;;;;;5.90;1.10;;;;;;;8.52;74.55;102075.03;5031493;28;20073;-51
2023/02/04 04:20:37;;;;;;;2.20;0.90;;;;;;;8.52;74.27;102072.44;5017720;28;20077;-48
2023/02/04 04:23:03;;;;;;;2.28;1.17;;;;;;;8.54;74.97;102078.59;5016558;28;20053;-49
2023/02/04 04:25:30;;;;;;;2.95;0.98;;;;;;;8.52;75.16;102075.03;5038234;28;20044;-48
2023/02/04 04:27:57;;;;;;;2.17;0.70;;;;;;;8.54;74.40;102078.59;5029923;28;20080;-49
2023/02/04 04:30:23;;;;;;;1.77;0.80;;;;;;;8.54;74.96;102073.44;5012091;28;20047;-48
2023/02/04 04:32:50;;;;;;;4.28;1.00;;;;;;;8.54;74.60;102078.59;5016869;28;20753;-48
2023/02/04 04:35:16;;;;;;;4.45;0.90;;;;;;;8.53;74.63;102076.78;5021477;28;20103;-47
2023/02/04 04:37:43;;;;;;;2.50;0.73;;;;;;;8.52;74.52;102082.78;5023522;28;20557;-47
2023/02/04 04:40:11;;;;;;;1.85;0.85;;;;;;;8.52;75.09;102080.19;5023101;28;20498;-51
2023/02/04 04:42:38;;;;;;;2.92;0.98;;;;;;;8.53;74.39;102087.13;5021167;28;20525;-49
2023/02/04 04:45:10;;;;;;;1.98;0.88;;;;;;;8.51;74.88;102084.47;5029298;28;20056;-48
2023/02/04 04:47:37;;;;;;;1.65;0.95;;;;;;;8.49;74.83;102089.56;5038195;28;20128;-47
2023/02/04 04:50:04;;;;;;;3.20;1.02;;;;;;;8.48;74.96;102092.97;5041754;28;20092;-49
2023/02/04 04:52:30;;;;;;;2.85;1.20;;;;;;;8.47;75.04;102086.06;5043996;28;20098;-50
2023/02/04 04:54:57;;;;;;;1.30;0.70;;;;;;;8.47;75.12;102093.81;5040161;28;20136;-50
2023/02/04 04:57:23;;;;;;;2.22;0.90;;;;;;;8.48;74.52;102100.72;5038509;28;20072;-48
2023/02/04 04:59:50;;;;;;;3.90;0.68;;;;;;;8.47;75.67;102093.81;5037948;28;20072;-50
2023/02/04 05:02:17;;;;;;;1.98;0.80;;;;;;;8.48;75.33;102098.16;5039928;28;20072;-46
2023/02/04 05:04:43;;;;;;;2.92;0.90;;;;;;;8.48;75.16;102099.88;5038855;28;20053;-47
2023/02/04 05:07:10;;;;;;;1.95;1.02;;;;;;;8.47;75.14;102098.09;5041528;28;20053;-50
2023/02/04 05:09:37;;;;;;;1.45;0.88;;;;;;;8.48;75.50;102100.72;5039200;28;20045;-48
2023/02/04 05:12:04;;;;;;;3.65;1.48;;;;;;;8.48;75.43;102102.47;5039393;28;20156;-47
2023/02/04 05:14:30;;;;;;;3.47;1.10;;;;;;;8.47;75.43;102106.72;5040790;28;20179;-48
2023/02/04 05:16:57;;;;;;;2.30;0.80;;;;;;;8.48;75.05;102111.06;5040104;28;20123;-49
2023/02/04 05:19:23;;;;;;;5.95;1.23;;;;;;;8.48;75.33;102110.19;5039014;28;20106;-48
2023/02/04 05:21:50;;;;;;;3.33;1.20;;;;;;;8.47;75.56;102111.91;5046626;28;20080;-48
2023/02/04 05:24:16;;;;;;;2.70;1.30;;;;;;;8.49;74.96;102110.22;5036646;28;20069;-48
2023/02/04 05:26:43;;;;;;;2.88;1.05;;;;;;;8.48;75.10;102111.06;5038740;28;20174;-49
2023/02/04 05:29:10;;;;;;;1.90;0.98;;;;;;;8.49;75.67;102112.81;5038506;28;20061;-50
2023/02/04 05:31:36;;;;;;;2.70;1.15;;;;;;;8.51;75.64;102114.59;5039922;28;20068;-50
2023/02/04 05:34:03;;;;;;;4.30;1.13;;;;;;;8.51;75.22;102122.34;5040512;28;20107;-48
2023/02/04 05:36:30;;;;;;;3.78;1.02;;;;;;;8.51;75.20;102119.78;5037480;28;20152;-49
2023/02/04 05:38:56;;;;;;;4.60;2.10;;;;;;;8.51;74.88;102130.09;5041745;28;20146;-46
2023/02/04 05:41:23;;;;;;;3.97;1.48;;;;;;;8.51;75.74;102130.09;5040354;28;20145;-48
2023/02/04 05:43:50;;;;;;;3.80;1.48;;;;;;;8.49;75.83;102130.91;5045348;28;20045;-50
2023/02/04 05:46:16;;;;;;;2.72;1.17;;;;;;;8.51;74.97;102135.25;5037567;28;20073;-48
2023/02/04 05:48:43;;;;;;;2.97;1.23;;;;;;;8.51;75.65;102135.25;5037273;28;20083;-51
2023/02/04 05:51:09;;;;;;;3.03;1.50;;;;;;;8.52;75.15;102137.03;5040042;28;20069;-50
2023/02/04 05:53:36;;;;;;;3.85;1.33;;;;;;;8.48;75.76;102130.88;5037081;28;20041;-51
2023/02/04 05:56:03;;;;;;;3.05;1.60;;;;;;;8.48;76.20;102123.13;5037353;28;20136;-48
2023/02/04 05:58:32;;;;;;;5.43;1.83;;;;;;;8.48;75.67;102131.72;5042427;28;20064;-48
2023/02/04 06:01:00;;;;;;;5.07;1.50;;;;;;;8.49;75.59;102132.63;5034767;28;20044;-47
2023/02/04 06:03:29;;;;;;;3.60;1.27;;;;;;;8.48;76.10;102131.72;5040571;28;20450;-49
2023/02/04 06:05:56;;;;;;;4.63;1.58;;;;;;;8.47;75.75;102118.75;5037971;28;20053;-47
2023/02/04 06:08:22;;;;;;;4.13;2.00;;;;;;;8.46;75.92;102111.84;5036923;28;20052;-47
2023/02/04 06:10:49;;;;;;;4.10;1.35;;;;;;;8.46;75.80;102115.31;5041001;28;20107;-48
2023/02/04 06:13:16;;;;;;;5.00;1.30;;;;;;;8.44;75.30;102119.50;5040403;28;20140;-47
2023/02/04 06:15:42;;;;;;;3.72;1.52;;;;;;;8.44;75.77;102122.09;5041310;28;20057;-47
2023/02/04 06:18:09;;;;;;;5.03;1.52;;;;;;;8.45;76.11;102136.75;5033519;28;20080;-49
2023/02/04 06:20:35;;;;;;;3.55;1.40;;;;;;;8.45;76.23;102134.19;5036531;28;20076;-49
2023/02/04 06:23:02;;;;;;;3.58;1.50;;;;;;;8.43;75.50;102128.09;5038934;28;20045;-48
2023/02/04 06:25:29;;;;;;;4.55;1.65;;;;;;;8.42;76.08;102128.91;5036370;28;20056;-51
2023/02/04 06:27:55;;;;;;;3.97;1.48;;;;;;;8.43;75.86;102128.09;5041599;28;20072;-48
2023/02/04 06:30:22;;;;;;;3.08;1.23;;;;;;;8.40;76.04;102127.97;5032747;28;20571;-46
2023/02/04 06:32:48;;;;;;;3.67;1.27;;;;;;;8.41;76.03;102145.22;5032862;28;20073;-47
2023/02/04 06:35:15;;;;;;;4.30;1.40;;;;;;;8.40;75.84;102143.47;5016077;28;20046;-50
2023/02/04 06:37:43;;;;;;;2.28;1.45;;;;;;;8.41;76.32;102145.22;5018096;28;20076;-49
2023/02/04 06:40:10;;;;;;;3.97;1.33;;;;;;;8.39;76.20;102154.63;5016590;28;20045;-51
2023/02/04 06:42:37;;;;;;;4.32;1.23;;;;;;;8.38;75.50;102147.69;5028776;28;20041;-48
2023/02/04 06:45:04;;;;;;;2.72;1.10;;;;;;;8.39;75.93;102152.03;5031946;28;20049;-48
2023/02/04 06:47:31;;;;;;;2.30;0.93;;;;;;;8.39;75.94;102154.63;5014812;28;20050;-48
2023/02/04 06:49:57;;;;;;;3.80;1.27;;;;;;;8.38;75.65;102150.28;5021639;28;20137;-48
2023/02/04 06:52:24;;;;;;;4.18;1.33;;;;;;;8.38;75.33;102145.13;5014768;28;20081;-47
2023/02/04 06:54:51;;;;;;;5.05;1.17;;;;;;;8.36;76.16;102147.63;5014366;28;20077;-50
2023/02/04 06:57:17;;;;;;;2.05;1.17;;;;;;;8.36;75.63;102149.31;5016978;28;20054;-48
2023/02/04 06:59:45;;;;;;;3.25;1.02;;;;;;;8.35;75.93;102155.31;5013551;28;20058;-50
2023/02/04 07:02:12;;;;;;;2.40;1.50;;;;;;;8.33;75.95;102156.94;5012950;28;20128;-48
2023/02/04 07:04:39;;;;;;;3.40;1.02;;;;;;;8.33;76.27;102156.94;5019100;28;20045;-46
2023/02/04 07:07:05;;;;;;;4.10;1.17;;;;;;;8.32;76.04;102163.81;5017993;28;20137;-47
2023/02/04 07:09:32;;;;;;;3.72;1.52;;;;;;;8.33;76.46;102159.50;5017289;28;20558;-51
2023/02/04 07:11:58;;;;;;;2.53;0.98;;;;;;;8.32;75.46;102160.34;5019728;28;20069;-51
2023/02/04 07:14:25;;;;;;;2.85;0.98;;;;;;;8.31;75.55;102153.44;5015000;28;20267;-51
2023/02/04 07:16:52;;;;;;;2.55;1.42;;;;;;;8.30;76.08;102161.97;5017518;28;20120;-48
2023/02/04 07:19:18;;;;;;;2.83;1.20;;;;;;;8.29;76.04;102157.63;5037776;28;20102;-47
2023/02/04 07:21:46;;;;;;;2.72;1.00;;;;;;;8.29;75.80;102155.03;5024159;28;20501;-50
2023/02/04 07:24:13;;;;;;;3.92;1.00;;;;;;;8.28;75.82;102155.88;5016620;28;20100;-48
2023/02/04 07:26:39;;;;;;;2.30;0.90;;;;;;;8.30;76.40;102167.13;5015794;28;20061;-50
2023/02/04 07:29:06;;;;;;;2.90;1.50;;;;;;;8.28;76.50;102167.06;5016577;28;20049;-48
2023/02/04 07:31:40;;;;;;;2.05;1.13;;;;;;;8.27;76.05;102169.63;5019462;28;20496;-48
2023/02/04 07:34:07;;;;;;;2.30;0.73;;;;;;;8.28;76.22;102173.94;5016270;28;20718;-47
2023/02/04 07:36:33;;;;;;;1.95;0.80;;;;;;;8.28;75.46;102179.13;5014985;28;20128;-48
2023/02/04 07:39:00;;;;;;;2.78;1.00;;;;;;;8.28;75.34;102181.69;5021993;28;20057;-48
2023/02/04 07:41:26;;;;;;;2.05;0.88;;;;;;;8.28;76.20;102181.69;5018651;28;20064;-47
2023/02/04 07:43:53;;;;;;;2.05;1.05;;;;;;;8.27;75.33;102183.38;5020228;28;20076;-49
2023/02/04 07:46:20;;;;;;;2.03;0.50;;;;;;;8.27;76.13;102187.69;5021670;28;20050;-50
2023/02/04 07:48:46;;;;;;;3.70;0.95;;;;;;;8.27;75.74;102185.09;5022508;28;20053;-48
2023/02/04 07:51:13;;;;;;;2.83;0.80;;;;;;;8.27;76.09;102192.84;5021969;28;21397;-47
2023/02/04 07:53:39;;;;;;;3.95;0.70;;;;;;;8.27;75.84;102192.84;5019919;28;20495;-52
2023/02/04 07:56:06;;;;;;;5.20;2.00;;;;;;;8.28;75.21;102203.22;5015393;28;20084;-47
2023/02/04 07:58:33;;;;;;;5.30;1.52;;;;;;;8.28;75.54;102204.94;5041916;28;20133;-48
2023/02/04 08:01:00;;;;;;;2.63;0.65;;;;;;;8.28;76.14;102202.34;5038928;28;20610;-48
2023/02/04 08:03:26;;;;;;;2.40;0.90;;;;;;;8.28;76.36;102208.38;5039143;28;20047;-47
2023/02/04 08:05:53;;;;;;;3.28;1.00;;;;;;;8.30;76.13;102209.34;5038613;28;20519;-51
2023/02/04 08:08:19;;;;;;;2.08;0.70;;;;;;;8.31;76.15;102205.06;5043147;28;20643;-49
2023/02/04 08:10:46;;;;;;;6.95;0.73;;;;;;;8.31;75.55;102205.06;5044413;28;20052;-50
2023/02/04 08:13:13;;;;;;;1.27;0.60;;;;;;;8.32;75.55;102210.28;5036991;28;20045;-49
2023/02/04 08:15:39;;;;;;;2.50;0.70;;;;;;;8.34;75.96;102212.91;5043299;28;20072;-50
2023/02/04 08:18:06;;;;;;;2.47;0.70;;;;;;;8.33;75.52;102214.63;5039657;28;20164;-49
2023/02/04 08:20:33;;;;;;;3.78;1.00;;;;;;;8.35;75.33;102212.13;5035046;28;20049;-50
2023/02/04 08:23:00;;;;;;;3.42;0.82;;;;;;;8.36;75.87;102211.28;5047875;28;20048;-49
2023/02/04 08:25:27;;;;;;;3.08;0.63;;;;;;;8.37;76.15;102215.63;5044600;28;20096;-49
2023/02/04 08:27:54;;;;;;;9.75;0.80;;;;;;;8.38;75.51;102217.41;5038538;28;20122;-48
2023/02/04 08:30:21;;;;;;;2.42;0.60;;;;;;;8.39;75.88;102219.16;5036536;28;20052;-48
2023/02/04 08:32:48;;;;;;;3.33;0.70;;;;;;;8.41;75.71;102222.69;5029660;28;20067;-50
2023/02/04 08:35:14;;;;;;;2.33;0.73;;;;;;;8.43;75.84;102225.31;5015203;28;20045;-50
2023/02/04 08:37:41;;;;;;;3.50;0.68;;;;;;;8.45;75.50;102228.88;5035789;28;20200;-51
2023/02/04 08:40:08;;;;;;;3.00;0.57;;;;;;;8.46;75.87;102226.34;5022686;28;20141;-51
2023/02/04 08:42:34;;;;;;;3.38;0.60;;;;;;;8.49;75.45;102235.94;5016093;28;20099;-49
2023/02/04 08:45:02;;;;;;;2.35;0.70;;;;;;;8.49;75.33;102236.78;5013710;28;20473;-52
2023/02/04 08:47:29;;;;;;;2.33;1.00;;;;;;;8.55;75.42;102232.75;5011290;28;20081;-50
2023/02/04 08:49:55;;;;;;;2.20;0.80;;;;;;;8.56;75.46;102234.50;5011577;28;20125;-48
2023/02/04 08:52:22;;;;;;;2.33;0.60;;;;;;;8.58;75.17;102238.03;5014721;28;20044;-51
2023/02/04 08:54:49;;;;;;;2.58;0.93;;;;;;;8.60;75.41;102238.97;5013710;28;20042;-51
2023/02/04 08:57:15;;;;;;;1.42;0.43;;;;;;;8.62;75.30;102247.69;5012457;28;20045;-49
2023/02/04 08:59:42;;;;;;;2.03;0.50;;;;;;;8.64;75.06;102251.19;5017378;28;20056;-49
2023/02/04 09:02:09;;;;;;;2.85;0.60;;;;;;;8.66;75.04;102257.31;5041818;28;20491;-51
2023/02/04 09:04:36;;;;;;;3.47;0.52;;;;;;;8.68;75.28;102258.25;5035969;28;20045;-49
2023/02/04 09:07:02;;;;;;;3.63;0.52;;;;;;;8.71;74.59;102263.53;5041714;28;20049;-48
2023/02/04 09:09:29;;;;;;;1.88;0.63;;;;;;;8.71;75.35;102262.66;5042178;28;20044;-48
2023/02/04 09:11:55;;;;;;;1.05;0.73;;;;;;;8.74;74.83;102262.78;5036272;28;20128;-48
2023/02/04 09:14:22;;;;;;;2.35;0.75;;;;;;;8.75;74.46;102264.56;5017485;28;20555;-49
2023/02/04 09:16:48;;;;;;;0.90;0.40;;;;;;;8.77;74.48;102262.03;5018536;28;20073;-49
2023/02/04 09:19:18;;;;;;;2.20;0.85;;;;;;;8.79;74.24;102271.63;5036379;28;20451;-49
2023/02/04 09:21:44;;;;;;;0.75;0.32;;;;;;;8.82;74.42;102266.56;5024966;28;20057;-49
2023/02/04 09:24:11;;;;;;;1.92;0.50;;;;;;;8.84;74.29;102269.19;5018659;28;20068;-50
2023/02/04 09:26:37;;;;;;;0.82;0.40;;;;;;;8.86;74.00;102275.34;5017181;28;20081;-50
2023/02/04 09:29:04;;;;;;;2.15;0.50;;;;;;;8.88;73.62;102271.09;5014833;28;20072;-48
2023/02/04 09:31:30;;;;;;;2.92;0.73;;;;;;;8.91;74.17;102271.22;5012724;28;20163;-47
2023/02/04 09:33:58;;;;;;;1.42;0.60;;;;;;;8.95;73.98;102267.94;5017878;28;20041;-50
2023/02/04 09:36:28;;;;;;;1.48;0.50;;;;;;;8.96;73.80;102264.56;5019032;28;20042;-48
2023/02/04 09:38:54;;;;;;;1.13;0.52;;;;;;;8.99;73.88;102269.81;5013145;28;20073;-48
2023/02/04 09:41:21;;;;;;;2.38;0.60;;;;;;;9.03;73.86;102265.66;5022293;28;20088;-50
2023/02/04 09:43:49;;;;;;;1.85;0.47;;;;;;;9.07;73.47;102271.81;5022225;28;20045;-49
2023/02/04 09:46:27;;;;;;;3.50;1.52;;;;;;;9.09;73.58;102275.38;5021480;28;20052;-50
2023/02/04 09:48:54;;;;;;;2.78;1.50;;;;;;;9.12;73.40;102270.31;5021366;28;20456;-48
2023/02/04 09:51:25;;;;;;;3.17;1.48;;;;;;;9.16;73.59;102264.44;5022259;28;20046;-50
2023/02/04 09:54:01;;;;;;;4.22;1.75;;;;;;;9.20;73.20;102268.03;5020360;28;20463;-47
2023/02/04 09:56:28;;;;;;;3.70;1.50;;;;;;;9.23;72.97;102262.97;5019156;28;20077;-47
2023/02/04 09:58:54;;;;;;;2.63;1.00;;;;;;;9.26;73.14;102265.69;5022638;28;20136;-49
2023/02/04 10:01:21;;;;;;;3.45;0.98;;;;;;;9.29;73.35;102262.31;5023175;28;20549;-53
2023/02/04 10:03:50;;;;;;;2.85;1.02;;;;;;;9.32;73.60;102262.44;5024672;28;20519;-50
2023/02/04 10:06:19;;;;;;;2.47;0.93;;;;;;;9.36;72.56;102259.16;5024015;28;20505;-48
2023/02/04 10:08:47;;;;;;;4.55;0.93;;;;;;;9.40;72.68;102266.22;5016590;28;20119;-51
2023/02/04 10:11:16;;;;;;;4.20;1.00;;;;;;;9.45;73.01;102259.50;5010098;28;20045;-50
2023/02/04 10:13:49;;;;;;;1.95;1.08;;;;;;;9.49;73.01;102265.69;5019479;28;20140;-57
2023/02/04 10:16:22;;;;;;;4.65;0.60;;;;;;;9.52;72.49;102258.91;5015686;28;20058;-46
2023/02/04 10:18:49;;;;;;;4.60;1.00;;;;;;;9.55;72.79;102260.72;5019445;28;20084;-52
2023/02/04 10:21:21;;;;;;;5.20;1.08;;;;;;;9.58;72.63;102270.28;5034280;28;20111;-49
2023/02/04 10:23:52;;;;;;;4.85;1.52;;;;;;;9.58;72.75;102276.34;5037870;28;20104;-52
2023/02/04 10:26:21;;;;;;;5.55;1.85;;;;;;;9.60;72.77;102284.19;5019780;28;20099;-51
2023/02/04 10:28:48;;;;;;;10.63;1.65;;;;;;;9.59;72.22;102287.59;5033575;28;20046;-50
2023/02/04 10:31:36;;;;;;;16.35;2.22;;;;;;;9.55;71.77;102275.38;5015238;28;20049;-55
2023/02/04 10:34:21;;;;;;;11.70;1.33;;;;;;;9.57;71.84;102278.88;5028607;28;20038;-54
2023/02/04 10:36:52;;;;;;;5.68;0.75;;;;;;;9.58;71.84;102283.22;5024209;28;20087;-52
2023/02/04 10:39:21;;;;;;;3.70;0.70;;;;;;;9.59;72.78;102282.44;5020785;28;20053;-52
2023/02/04 10:41:51;;;;;;;1.98;0.68;;;;;;;9.60;71.91;102286.78;5020569;28;20049;-51
2023/02/04 10:44:27;;;;;;;6.43;0.95;;;;;;;9.61;72.05;102291.09;5018214;28;20128;-53
2023/02/04 10:47:03;;;;;;;3.83;0.88;;;;;;;9.61;71.62;102291.09;5045935;28;20045;-49
2023/02/04 10:49:30;;;;;;;2.08;0.65;;;;;;;9.63;72.14;102289.47;5019163;28;20100;-51
2023/02/04 10:51:57;;;;;;;8.05;1.20;;;;;;;9.65;72.18;102287.81;5013465;28;20041;-53
2023/02/04 10:54:29;;;;;;;6.75;1.05;;;;;;;9.66;71.25;102297.31;5018662;28;20037;-51
2023/02/04 10:56:59;;;;;;;3.65;0.90;;;;;;;9.69;71.50;102305.22;5020716;28;20045;-53
2023/02/04 10:59:26;;;;;;;;;;;;;;;9.60;72.26;102299.72;5017530;28;20057;-49
2023/02/04 11:01:56;;;;;;;7.07;1.30;;;;;;;9.71;71.47;102298.41;5017523;28;19964;-50
2023/02/04 11:04:23;;;;;;;3.38;1.05;;;;;;;9.73;71.98;102296.72;5015976;28;20061;-50
2023/02/04 11:06:51;;;;;;;5.18;1.38;;;;;;;9.72;71.08;102294.97;5017279;28;20640;-50
2023/02/04 11:09:18;;;;;;;9.68;1.23;;;;;;;9.72;71.34;102294.97;5016090;28;20142;-52
2023/02/04 11:11:47;;;;;;;9.45;1.30;;;;;;;9.76;70.93;102293.38;5020010;28;20086;-50
2023/02/04 11:14:25;;;;;;;6.68;0.80;;;;;;;9.76;71.41;102295.97;5023470;28;20503;-49
2023/02/04 11:16:53;;;;;;;28.40;2.38;;;;;;;9.81;71.03;102293.56;5038426;28;20084;-51
2023/02/04 11:19:37;;;;;;;4.72;1.02;;;;;;;9.83;70.81;102299.69;5039110;28;20049;-54
2023/02/04 11:22:07;;;;;;;1.83;0.73;;;;;;;9.91;71.19;102300.84;5036058;28;20560;-51
2023/02/04 11:24:34;;;;;;;1.52;0.80;;;;;;;9.92;71.33;102310.34;5061628;28;20065;-52
2023/02/04 11:27:17;;;;;;;3.85;0.43;;;;;;;9.93;71.12;102314.69;5032615;28;20064;-50
2023/02/04 11:29:44;;;;;;;2.83;0.65;;;;;;;9.94;70.95;102310.41;5039873;28;20088;-50
2023/02/04 11:32:33;;;;;;;2.67;0.90;;;;;;;9.90;70.92;102314.63;5042446;28;20143;-52
2023/02/04 11:35:23;;;;;;;3.08;0.70;;;;;;;9.89;70.78;102307.66;5041697;28;20045;-51
2023/02/04 11:37:49;;;;;;;2.60;0.68;;;;;;;9.91;70.08;102306.00;5026030;28;20090;-55